createdAt,value
2022-12-26T00:04:58.313Z,8.80
2022-12-26T00:10:00.003Z,7.90
2022-12-26T00:15:01.922Z,7.63
2022-12-26T00:20:03.993Z,6.38
2022-12-26T00:25:06.188Z,6.55
2022-12-26T00:30:08.991Z,6.38
2022-12-26T00:35:10.711Z,6.82
2022-12-26T00:40:12.668Z,7.03
2022-12-26T00:45:14.301Z,5.88
2022-12-26T00:50:16.260Z,6.07
2022-12-26T00:55:18.088Z,5.28
2022-12-26T01:00:46.827Z,5.45
2022-12-26T01:05:51.001Z,4.57
2022-12-26T01:10:53.222Z,5.05
2022-12-26T01:15:54.999Z,5.38
2022-12-26T01:21:02.172Z,5.07
2022-12-26T01:26:16.351Z,4.43
2022-12-26T01:31:22.920Z,3.60
2022-12-26T01:36:24.604Z,3.38
2022-12-26T01:41:26.873Z,3.27
2022-12-26T01:46:37.972Z,4.22
2022-12-26T01:51:44.724Z,3.35
2022-12-26T01:56:47.379Z,3.30
2022-12-26T02:01:53.002Z,3.72
2022-12-26T02:06:58.171Z,4.20
2022-12-26T02:12:34.892Z,4.18
2022-12-26T02:17:41.147Z,3.90
2022-12-26T02:23:07.837Z,3.75
2022-12-26T02:28:18.392Z,3.80
2022-12-26T02:33:37.064Z,3.90
2022-12-26T02:39:45.105Z,3.80
2022-12-26T02:44:54.959Z,6.10
2022-12-26T02:50:43.450Z,5.35
2022-12-26T02:56:08.442Z,4.15
2022-12-26T03:01:51.482Z,4.30
2022-12-26T03:07:18.346Z,4.82
2022-12-26T03:12:38.678Z,4.47
2022-12-26T03:23:01.673Z,4.95
2022-12-26T03:28:03.478Z,5.07
2022-12-26T03:33:26.436Z,5.30
2022-12-26T03:38:51.256Z,4.68
2022-12-26T03:44:36.638Z,4.88
2022-12-26T03:50:05.816Z,4.70
2022-12-26T03:55:48.487Z,4.05
2022-12-26T04:01:13.025Z,3.72
2022-12-26T04:06:39.043Z,4.07
2022-12-26T04:12:02.970Z,3.45
2022-12-26T04:17:46.385Z,2.60
2022-12-26T04:23:30.120Z,2.60
2022-12-26T04:28:50.247Z,2.50
2022-12-26T04:34:16.598Z,2.20
2022-12-26T04:39:42.129Z,2.35
2022-12-26T04:44:45.918Z,2.00
2022-12-26T04:50:05.956Z,1.88
2022-12-26T04:55:07.976Z,2.10
2022-12-26T05:00:10.228Z,1.90
2022-12-26T05:05:30.734Z,1.77
2022-12-26T05:10:32.852Z,1.95
2022-12-26T05:15:54.499Z,1.83
2022-12-26T05:21:15.040Z,2.05
2022-12-26T05:26:41.541Z,1.65
2022-12-26T05:31:43.560Z,1.55
2022-12-26T05:36:51.964Z,1.25
2022-12-26T05:41:53.855Z,1.60
2022-12-26T05:46:55.744Z,1.65
2022-12-26T05:51:57.354Z,1.65
2022-12-26T05:57:00.188Z,1.45
2022-12-26T06:02:02.035Z,1.70
2022-12-26T06:07:04.018Z,1.42
2022-12-26T06:12:05.822Z,1.33
2022-12-26T06:17:07.459Z,1.60
2022-12-26T06:22:09.077Z,1.98
2022-12-26T06:27:10.673Z,2.60
2022-12-26T06:32:12.541Z,1.70
2022-12-26T06:37:14.297Z,1.80
2022-12-26T06:42:15.934Z,1.52
2022-12-26T06:47:17.663Z,1.80
2022-12-26T06:52:19.381Z,2.10
2022-12-26T06:57:21.074Z,1.42
2022-12-26T07:02:22.911Z,2.50
2022-12-26T07:07:24.618Z,1.88
2022-12-26T07:12:26.215Z,2.67
2022-12-26T07:17:27.789Z,2.03
2022-12-26T07:22:29.443Z,2.03
2022-12-26T07:27:31.189Z,1.83
2022-12-26T07:32:32.929Z,1.40
2022-12-26T07:37:34.626Z,2.45
2022-12-26T07:42:36.631Z,2.15
2022-12-26T07:47:38.283Z,1.70
2022-12-26T07:52:39.865Z,2.33
2022-12-26T07:57:49.581Z,3.17
2022-12-26T08:07:55.042Z,2.78
2022-12-26T08:12:57.940Z,2.42
2022-12-26T08:17:59.666Z,2.92
2022-12-26T08:23:02.491Z,3.30
2022-12-26T08:28:04.412Z,3.40
2022-12-26T08:33:06.067Z,3.75
2022-12-26T08:38:07.837Z,2.83
2022-12-26T08:43:30.214Z,2.50
2022-12-26T08:48:31.563Z,2.13
2022-12-26T08:53:35.823Z,3.25
2022-12-26T08:58:37.619Z,2.20
2022-12-26T09:03:39.859Z,1.92
2022-12-26T09:08:42.225Z,1.98
2022-12-26T09:13:45.246Z,1.92
2022-12-26T09:18:48.222Z,1.63
2022-12-26T09:23:50.319Z,1.63
2022-12-26T09:28:52.353Z,1.20
2022-12-26T09:33:54.619Z,1.67
2022-12-26T09:38:58.501Z,0.70
2022-12-26T09:44:07.600Z,1.27
2022-12-26T09:49:15.204Z,1.50
2022-12-26T09:54:40.347Z,1.38
2022-12-26T09:59:54.576Z,1.45
2022-12-26T10:04:56.405Z,1.33
2022-12-26T10:10:09.627Z,1.10
2022-12-26T10:15:26.233Z,1.67
2022-12-26T10:20:33.477Z,1.20
2022-12-26T10:25:53.507Z,1.27
2022-12-26T10:30:58.628Z,0.90
2022-12-26T10:36:01.373Z,1.08
2022-12-26T10:41:26.385Z,1.60
2022-12-26T10:47:16.399Z,1.58
2022-12-26T10:52:23.008Z,1.67
2022-12-26T10:57:28.669Z,2.00
2022-12-26T11:02:32.273Z,1.30
2022-12-26T11:07:37.981Z,1.52
2022-12-26T11:12:51.263Z,1.40
2022-12-26T11:17:53.976Z,1.50
2022-12-26T11:23:14.139Z,1.02
2022-12-26T11:28:24.541Z,1.17
2022-12-26T11:33:30.774Z,1.00
2022-12-26T11:38:44.923Z,1.50
2022-12-26T11:43:48.320Z,1.20
2022-12-26T11:48:51.290Z,1.00
2022-12-26T11:54:13.057Z,1.45
2022-12-26T11:59:21.676Z,1.38
2022-12-26T12:04:23.302Z,1.13
2022-12-26T12:10:09.515Z,1.20
2022-12-26T12:15:22.657Z,1.55
2022-12-26T12:20:50.263Z,1.70
2022-12-26T12:26:09.334Z,1.38
2022-12-26T12:31:49.092Z,1.30
2022-12-26T12:37:04.666Z,1.42
2022-12-26T12:42:27.961Z,1.70
2022-12-26T12:47:35.195Z,1.35
2022-12-26T12:52:55.067Z,1.30
2022-12-26T12:58:07.736Z,1.35
2022-12-26T13:03:35.629Z,1.45
2022-12-26T13:08:53.741Z,2.00
2022-12-26T13:14:10.571Z,1.48
2022-12-26T13:19:21.654Z,1.85
2022-12-26T13:24:36.592Z,1.83
2022-12-26T13:29:46.917Z,1.08
2022-12-26T13:34:50.092Z,1.45
2022-12-26T13:39:52.648Z,1.65
2022-12-26T13:44:54.782Z,2.13
2022-12-26T13:49:56.418Z,1.27
2022-12-26T13:55:07.368Z,1.38
2022-12-26T14:00:48.250Z,1.95
2022-12-26T14:06:17.885Z,2.00
2022-12-26T14:11:52.676Z,2.00
2022-12-26T14:16:57.062Z,1.63
2022-12-26T14:22:17.185Z,2.10
2022-12-26T14:27:37.778Z,1.70
2022-12-26T14:32:45.223Z,2.28
2022-12-26T14:38:10.464Z,1.90
2022-12-26T14:43:38.054Z,1.85
2022-12-26T14:48:46.107Z,1.50
2022-12-26T14:54:22.157Z,1.45
2022-12-26T14:59:30.761Z,1.58
2022-12-26T15:04:43.784Z,1.33
2022-12-26T15:10:23.975Z,1.63
2022-12-26T15:15:32.751Z,2.30
2022-12-26T15:20:40.528Z,1.83
2022-12-26T15:26:00.374Z,2.00
2022-12-26T15:31:23.005Z,1.98
2022-12-26T15:36:37.110Z,2.13
2022-12-26T15:41:48.591Z,1.77
2022-12-26T15:47:22.174Z,1.90
2022-12-26T15:52:36.088Z,1.77
2022-12-26T15:57:58.919Z,2.00
2022-12-26T16:03:00.609Z,2.08
2022-12-26T16:08:24.173Z,1.98
2022-12-26T16:13:26.028Z,1.48
2022-12-26T16:18:33.091Z,1.30
2022-12-26T16:23:40.094Z,2.10
2022-12-26T16:28:43.410Z,2.08
2022-12-26T16:33:45.284Z,2.47
2022-12-26T16:38:47.744Z,2.42
2022-12-26T16:43:51.444Z,1.60
2022-12-26T16:48:57.240Z,2.35
2022-12-26T16:54:15.948Z,2.25
2022-12-26T16:59:24.053Z,1.95
2022-12-26T17:04:28.648Z,2.17
2022-12-26T17:09:39.337Z,1.63
2022-12-26T17:14:43.335Z,1.58
2022-12-26T17:19:47.800Z,2.35
2022-12-26T17:25:26.624Z,2.00
2022-12-26T17:30:31.530Z,1.77
2022-12-26T17:36:21.365Z,1.63
2022-12-26T17:41:02.029Z,2.17
2022-12-26T17:46:06.086Z,2.40
2022-12-26T17:51:12.830Z,1.83
2022-12-26T17:56:17.594Z,1.85
2022-12-26T18:01:23.903Z,1.63
2022-12-26T18:06:26.040Z,1.95
2022-12-26T18:11:27.644Z,2.30
2022-12-26T18:16:30.049Z,2.30
2022-12-26T18:21:31.848Z,1.77
2022-12-26T18:26:33.530Z,2.50
2022-12-26T18:31:39.493Z,1.88
2022-12-26T18:36:43.142Z,2.50
2022-12-26T18:41:48.007Z,1.65
2022-12-26T18:46:52.673Z,2.38
2022-12-26T18:51:54.457Z,1.52
2022-12-26T18:56:56.076Z,1.77
2022-12-26T19:02:00.639Z,1.90
2022-12-26T19:07:05.025Z,2.17
2022-12-26T19:12:06.806Z,2.35
2022-12-26T19:17:08.923Z,2.20
2022-12-26T19:22:12.604Z,2.00
2022-12-26T19:27:15.419Z,2.88
2022-12-26T19:32:17.805Z,2.33
2022-12-26T19:37:19.607Z,2.33
2022-12-26T19:42:21.364Z,1.98
2022-12-26T19:47:23.287Z,2.35
2022-12-26T19:52:27.279Z,2.33
2022-12-26T19:57:37.901Z,2.00
2022-12-26T20:02:40.492Z,2.00
2022-12-26T20:07:44.671Z,2.40
2022-12-26T20:12:46.348Z,2.22
2022-12-26T20:17:49.135Z,4.68
2022-12-26T20:22:53.233Z,2.10
2022-12-26T20:27:55.160Z,1.63
2022-12-26T20:32:57.326Z,1.92
2022-12-26T20:37:59.161Z,3.08
2022-12-26T20:43:00.832Z,2.05
2022-12-26T20:48:02.636Z,2.50
2022-12-26T20:53:07.293Z,1.80
2022-12-26T20:58:08.926Z,2.80
2022-12-26T21:03:15.043Z,2.13
2022-12-26T21:08:20.221Z,2.50
2022-12-26T21:13:22.005Z,2.90
2022-12-26T21:18:23.678Z,2.15
2022-12-26T21:23:25.348Z,2.22
2022-12-26T21:28:30.197Z,1.92
2022-12-26T21:33:32.022Z,2.05
2022-12-26T21:38:33.747Z,2.13
2022-12-26T21:43:35.837Z,2.05
2022-12-26T21:48:39.442Z,2.47
2022-12-26T21:53:41.575Z,2.20
2022-12-26T21:59:02.830Z,2.47
2022-12-26T22:04:19.679Z,2.15
2022-12-26T22:09:21.796Z,1.52
2022-12-26T22:14:23.522Z,2.00
2022-12-26T22:19:26.172Z,1.80
2022-12-26T22:24:27.843Z,2.42
2022-12-26T22:29:29.471Z,2.10
2022-12-26T22:34:31.073Z,2.78
2022-12-26T22:39:32.688Z,1.80
2022-12-26T22:44:34.320Z,1.27
2022-12-26T22:49:36.060Z,2.38
2022-12-26T22:54:37.723Z,2.28
2022-12-26T23:00:07.805Z,3.08
2022-12-26T23:05:01.520Z,2.28
2022-12-26T23:10:05.685Z,2.75
2022-12-26T23:15:08.319Z,2.58
2022-12-26T23:20:31.174Z,2.35
2022-12-26T23:25:32.944Z,2.13
2022-12-26T23:30:34.850Z,2.20
2022-12-26T23:35:36.588Z,1.38
2022-12-26T23:40:38.273Z,2.08
2022-12-26T23:45:44.149Z,3.00
2022-12-26T23:50:45.915Z,1.90
2022-12-26T23:55:47.830Z,2.05
